• Join FlightAware (Why Join?)
  • Login
  • US Flag 
08:49AM EDT


 

Airport Tracker/Info


-or-


 

Live Flight TrackerFlight Track Log ✈ N724AE ✈ 05-Apr-2013 ✈ KBTR - KDFW

Flight Track Log - Related Links

Times and Time Zones

All times are in EDT time to prevent confusion due to time zone crossing. See the N724AE flight status page for this flight to view local times or setup timezone preferences in your user account.

Time Position Orientation Groundspeed Altitude Reporting Facility
EDT Latitude Longitude Course Direction KTS MPH feet Rate Location/Type
10:18AM 30.5806 -91.2147 323° Northwest 212 244 32,000  Level Houston Center
10:19AM 30.6505 -91.2672 319° Northwest  Level FlightAware Approximate
10:19AM 30.6200 -91.2747 307° West 231 266 5,900  Level Houston Center
10:20AM 30.7167 -91.3345 270° West  Level FlightAware Approximate
10:20AM 30.6558 -91.3425 302° West 243 280 8,700  Level Houston Center
10:21AM 30.7785 -91.3981 313° West  Level FlightAware Approximate
10:21AM 30.7061 -91.4147 309° West 283 326 10,400  Level Houston Center
10:22AM 30.8396 -91.4722 323° Northwest  Level FlightAware Approximate
10:22AM 30.7597 -91.4956 308° West 317 365 11,400  Level Houston Center
10:23AM 30.9144 -91.5376 323° Northwest  Level FlightAware Approximate
10:23AM 30.8339 -91.6033 309° West 352 405 13,200  Level Houston Center
10:24AM 30.8944 -91.6933 308° West 352 405 15,100 1,740 Climbing Houston Center
10:25AM 30.9647 -91.7681 318° Northwest 342 394 16,900 1,740 Climbing Houston Center
10:26AM 31.0356 -91.8389 319° Northwest 338 389 18,700 1,800 Climbing Houston Center
10:27AM 31.1042 -91.9108 318° Northwest 333 383 20,700 1,860 Climbing Houston Center
10:28AM 31.1725 -91.9858 317° Northwest 337 388 22,600 1,920 Climbing Houston Center
10:29AM 31.2433 -92.0650 316° Northwest 331 381 24,700 1,920 Climbing Houston Center
10:30AM 31.2789 -92.1692 292° West 343 395 26,600 1,800 Climbing Houston Center
10:31AM 31.3167 -92.3006 289° West 354 407 28,500 1,560 Climbing Houston Center
10:32AM 31.3481 -92.4100 289° West 356 410 29,900 1,140 Climbing Houston Center
10:33AM 31.3800 -92.5194 289° West 357 411 30,900 960 Climbing Houston Center
10:34AM 31.4136 -92.6372 289° West 373 429 31,900 480 Climbing Houston Center
10:35AM 31.4497 -92.7597 289° West 390 449 32,000  Climbing Houston Center
10:37AM 31.4853 -92.8831 289° West 399 459 32,000  Level Houston Center
10:38AM 31.5272 -93.0300 289° West 400 460 32,000  Level Houston Center
10:39AM 31.5619 -93.1531 288° West 399 459 32,000  Level Houston Center
10:40AM 31.5992 -93.2833 289° West 394 453 32,000  Level Houston Center
10:41AM 31.6328 -93.4036 288° West 396 456 32,000  Level Houston Center
10:41AM 31.6550 -93.4769 290° West 395 455 32,000  Level Fort Worth Center
10:42AM 31.6811 -93.5758 287° West 395 455 32,000  Level Fort Worth Center
10:43AM 31.7139 -93.6967 288° West 395 455 32,000  Level Fort Worth Center
10:44AM 31.7536 -93.8439 288° West 395 455 32,000  Level Fort Worth Center
10:45AM 31.7781 -93.9678 283° West 395 455 32,000  Level Fort Worth Center
10:46AM 31.8022 -94.0914 283° West 395 455 32,000  Level Fort Worth Center
10:48AM 31.8439 -94.2972 283° West 398 458 32,000  Level Houston Center
10:49AM 31.8764 -94.4753 282° West 395 455 32,000  Level Fort Worth Center
10:50AM 31.9022 -94.5992 284° West 395 455 32,000  Level Fort Worth Center
10:51AM 31.9258 -94.7258 282° West 395 455 32,000  Level Fort Worth Center
10:52AM 31.9494 -94.8525 282° West 395 455 32,000 -540 Level Fort Worth Center
10:53AM 31.9747 -94.9792 283° West 400 460 31,000 -1,260 Descending Fort Worth Center
10:54AM 31.9981 -95.1033 283° West 394 453 29,500 -1,500 Descending Fort Worth Center
10:55AM 32.0192 -95.2303 281° West 389 448 28,000 -1,500 Descending Fort Worth Center
10:56AM 32.0442 -95.3522 284° West 389 448 26,500 -1,560 Descending Fort Worth Center
10:57AM 32.0650 -95.4767 281° West 389 448 24,900 -1,560 Descending Fort Worth Center
10:58AM 32.0875 -95.5989 282° West 389 448 23,400 -1,680 Descending Fort Worth Center
10:59AM 32.1081 -95.7186 281° West 389 448 21,600 -1,800 Descending Fort Worth Center
11:00AM 32.1242 -95.8336 279° West 376 433 19,900 -1,800 Descending Fort Worth Center
11:01AM 32.1444 -95.9486 282° West 361 415 18,100 -1,620 Descending Fort Worth Center
11:02AM 32.1622 -96.0636 280° West 361 415 16,700 -1,500 Descending Fort Worth Center
11:03AM 32.1781 -96.1642 281° West 350 403 15,200 -1,500 Descending Fort Worth Center
11:04AM 32.2144 -96.2569 295° West 324 373 13,700 -1,500 Descending Fort Worth Center
11:05AM 32.2797 -96.3272 318° Northwest 318 366 12,300 -1,380 Descending Fort Worth Center
11:06AM 32.3431 -96.4078 313° West 300 345 11,000 -720 Descending Fort Worth Center
11:07AM 32.3853 -96.4736 307° West 288 331 10,900 -600 Descending Fort Worth Center
11:08AM 32.4172 -96.5692 292° West 274 315 9,800 -1,020 Descending Fort Worth Center
11:09AM 32.4489 -96.6378 299° West 274 315 8,900 -960 Descending Fort Worth Center
11:10AM 32.4953 -96.7164 305° West 268 308 7,900 -960 Descending Fort Worth Center
11:11AM 32.5311 -96.7800 304° West 262 302 7,000 -1,020 Descending Fort Worth Center
11:12AM 32.5733 -96.8611 302° West 262 302 5,900 -1,020 Descending Fort Worth Center
11:13AM 32.6092 -96.9250 304° West 257 296 5,000 -960 Descending Fort Worth Center
11:14AM 32.6667 -97.0000 312° West 266 306 4,000 -1,020 Descending Dallas / Fort Worth TRACON